sensor_id;sensor_type;location;lat;lon;timestamp;P1;durP1;ratioP1;P2;durP2;ratioP2
8113;SDS011;4099;52.684;9.918;2022-12-18T00:04:17;27.40;;;14.23;;
8113;SDS011;4099;52.684;9.918;2022-12-18T00:09:23;25.83;;;14.53;;
8113;SDS011;4099;52.684;9.918;2022-12-18T00:14:25;25.03;;;12.87;;
8113;SDS011;4099;52.684;9.918;2022-12-18T00:19:27;23.47;;;12.50;;
8113;SDS011;4099;52.684;9.918;2022-12-18T00:24:30;25.57;;;12.97;;
8113;SDS011;4099;52.684;9.918;2022-12-18T00:29:32;25.47;;;14.60;;
8113;SDS011;4099;52.684;9.918;2022-12-18T00:34:34;28.60;;;13.90;;
8113;SDS011;4099;52.684;9.918;2022-12-18T00:39:38;23.63;;;13.57;;
8113;SDS011;4099;52.684;9.918;2022-12-18T00:44:39;24.20;;;14.17;;
8113;SDS011;4099;52.684;9.918;2022-12-18T00:49:41;22.93;;;13.00;;
8113;SDS011;4099;52.684;9.918;2022-12-18T00:54:44;21.80;;;12.20;;
8113;SDS011;4099;52.684;9.918;2022-12-18T00:59:46;26.77;;;14.07;;
8113;SDS011;4099;52.684;9.918;2022-12-18T01:04:48;24.70;;;13.13;;
8113;SDS011;4099;52.684;9.918;2022-12-18T01:09:54;25.77;;;13.33;;
8113;SDS011;4099;52.684;9.918;2022-12-18T01:14:56;22.60;;;12.40;;
8113;SDS011;4099;52.684;9.918;2022-12-18T01:19:58;21.53;;;12.80;;
8113;SDS011;4099;52.684;9.918;2022-12-18T01:25:02;25.70;;;12.90;;
8113;SDS011;4099;52.684;9.918;2022-12-18T01:30:05;23.93;;;12.30;;
8113;SDS011;4099;52.684;9.918;2022-12-18T01:35:08;27.67;;;12.20;;
8113;SDS011;4099;52.684;9.918;2022-12-18T01:40:11;25.40;;;11.90;;
8113;SDS011;4099;52.684;9.918;2022-12-18T01:45:24;18.37;;;11.37;;
8113;SDS011;4099;52.684;9.918;2022-12-18T01:50:28;19.33;;;11.73;;
8113;SDS011;4099;52.684;9.918;2022-12-18T01:55:36;21.20;;;11.83;;
8113;SDS011;4099;52.684;9.918;2022-12-18T02:00:41;20.97;;;10.63;;
8113;SDS011;4099;52.684;9.918;2022-12-18T02:05:44;19.47;;;10.90;;
8113;SDS011;4099;52.684;9.918;2022-12-18T02:10:54;17.47;;;10.17;;
8113;SDS011;4099;52.684;9.918;2022-12-18T02:16:06;17.70;;;10.80;;
8113;SDS011;4099;52.684;9.918;2022-12-18T02:21:18;19.73;;;10.63;;
8113;SDS011;4099;52.684;9.918;2022-12-18T02:26:30;20.90;;;11.43;;
8113;SDS011;4099;52.684;9.918;2022-12-18T02:31:39;19.33;;;11.23;;
8113;SDS011;4099;52.684;9.918;2022-12-18T02:36:45;19.77;;;10.17;;
8113;SDS011;4099;52.684;9.918;2022-12-18T02:41:50;19.53;;;10.43;;
8113;SDS011;4099;52.684;9.918;2022-12-18T02:46:56;18.00;;;10.00;;
8113;SDS011;4099;52.684;9.918;2022-12-18T02:52:01;18.03;;;9.57;;
8113;SDS011;4099;52.684;9.918;2022-12-18T02:57:13;19.50;;;9.47;;
8113;SDS011;4099;52.684;9.918;2022-12-18T03:02:21;20.83;;;10.90;;
8113;SDS011;4099;52.684;9.918;2022-12-18T03:07:32;18.10;;;10.27;;
8113;SDS011;4099;52.684;9.918;2022-12-18T03:12:43;19.60;;;10.07;;
8113;SDS011;4099;52.684;9.918;2022-12-18T03:17:51;17.10;;;9.87;;
8113;SDS011;4099;52.684;9.918;2022-12-18T03:23:02;18.67;;;10.00;;
8113;SDS011;4099;52.684;9.918;2022-12-18T03:28:12;18.93;;;9.50;;
8113;SDS011;4099;52.684;9.918;2022-12-18T03:33:18;20.53;;;9.20;;
8113;SDS011;4099;52.684;9.918;2022-12-18T03:38:28;18.13;;;10.13;;
8113;SDS011;4099;52.684;9.918;2022-12-18T03:43:37;19.73;;;10.47;;
8113;SDS011;4099;52.684;9.918;2022-12-18T03:48:51;19.27;;;9.80;;
8113;SDS011;4099;52.684;9.918;2022-12-18T03:53:59;17.47;;;10.27;;
8113;SDS011;4099;52.684;9.918;2022-12-18T03:59:08;16.27;;;9.37;;
8113;SDS011;4099;52.684;9.918;2022-12-18T04:04:14;16.60;;;9.00;;
8113;SDS011;4099;52.684;9.918;2022-12-18T04:09:18;15.20;;;8.90;;
8113;SDS011;4099;52.684;9.918;2022-12-18T04:14:23;19.47;;;9.87;;
8113;SDS011;4099;52.684;9.918;2022-12-18T04:19:29;15.00;;;9.40;;
8113;SDS011;4099;52.684;9.918;2022-12-18T04:24:36;19.83;;;10.27;;
8113;SDS011;4099;52.684;9.918;2022-12-18T04:29:50;15.97;;;9.67;;
8113;SDS011;4099;52.684;9.918;2022-12-18T04:34:52;18.00;;;9.67;;
8113;SDS011;4099;52.684;9.918;2022-12-18T04:39:55;17.17;;;9.37;;
8113;SDS011;4099;52.684;9.918;2022-12-18T04:45:07;14.37;;;8.83;;
8113;SDS011;4099;52.684;9.918;2022-12-18T04:50:09;16.50;;;9.47;;
8113;SDS011;4099;52.684;9.918;2022-12-18T04:55:11;13.17;;;8.70;;
8113;SDS011;4099;52.684;9.918;2022-12-18T05:00:15;14.50;;;8.37;;
8113;SDS011;4099;52.684;9.918;2022-12-18T05:05:17;14.07;;;8.20;;
8113;SDS011;4099;52.684;9.918;2022-12-18T05:10:19;13.73;;;8.50;;
8113;SDS011;4099;52.684;9.918;2022-12-18T05:15:22;16.07;;;8.90;;
8113;SDS011;4099;52.684;9.918;2022-12-18T05:20:24;14.97;;;8.73;;
8113;SDS011;4099;52.684;9.918;2022-12-18T05:25:26;15.47;;;8.60;;
8113;SDS011;4099;52.684;9.918;2022-12-18T05:30:29;16.47;;;9.03;;
8113;SDS011;4099;52.684;9.918;2022-12-18T05:35:31;16.47;;;8.50;;
8113;SDS011;4099;52.684;9.918;2022-12-18T05:40:33;12.90;;;8.37;;
8113;SDS011;4099;52.684;9.918;2022-12-18T05:45:37;14.63;;;8.00;;
8113;SDS011;4099;52.684;9.918;2022-12-18T05:50:40;17.27;;;8.57;;
8113;SDS011;4099;52.684;9.918;2022-12-18T05:55:44;15.83;;;8.60;;
8113;SDS011;4099;52.684;9.918;2022-12-18T06:00:47;18.47;;;9.27;;
8113;SDS011;4099;52.684;9.918;2022-12-18T06:05:49;16.33;;;8.83;;
8113;SDS011;4099;52.684;9.918;2022-12-18T06:10:51;13.67;;;8.50;;
8113;SDS011;4099;52.684;9.918;2022-12-18T06:15:55;14.13;;;8.37;;
8113;SDS011;4099;52.684;9.918;2022-12-18T06:20:57;16.27;;;9.83;;
8113;SDS011;4099;52.684;9.918;2022-12-18T06:26:03;13.70;;;8.80;;
8113;SDS011;4099;52.684;9.918;2022-12-18T06:31:07;21.60;;;9.60;;
8113;SDS011;4099;52.684;9.918;2022-12-18T06:36:11;18.57;;;9.43;;
8113;SDS011;4099;52.684;9.918;2022-12-18T06:41:14;16.63;;;9.57;;
8113;SDS011;4099;52.684;9.918;2022-12-18T06:46:19;19.33;;;10.50;;
8113;SDS011;4099;52.684;9.918;2022-12-18T06:51:21;18.70;;;9.67;;
8113;SDS011;4099;52.684;9.918;2022-12-18T06:56:24;18.03;;;9.23;;
8113;SDS011;4099;52.684;9.918;2022-12-18T07:01:27;18.50;;;10.20;;
8113;SDS011;4099;52.684;9.918;2022-12-18T07:06:29;20.50;;;10.53;;
8113;SDS011;4099;52.684;9.918;2022-12-18T07:11:31;17.67;;;9.23;;
8113;SDS011;4099;52.684;9.918;2022-12-18T07:16:35;15.97;;;9.00;;
8113;SDS011;4099;52.684;9.918;2022-12-18T07:21:37;17.63;;;9.83;;
8113;SDS011;4099;52.684;9.918;2022-12-18T07:26:39;17.50;;;9.90;;
8113;SDS011;4099;52.684;9.918;2022-12-18T07:31:42;21.23;;;10.70;;
8113;SDS011;4099;52.684;9.918;2022-12-18T07:36:44;21.40;;;10.97;;
8113;SDS011;4099;52.684;9.918;2022-12-18T07:41:46;27.97;;;13.07;;
8113;SDS011;4099;52.684;9.918;2022-12-18T07:47:09;26.87;;;14.30;;
8113;SDS011;4099;52.684;9.918;2022-12-18T07:52:11;26.97;;;13.90;;
8113;SDS011;4099;52.684;9.918;2022-12-18T07:57:13;25.37;;;13.40;;
8113;SDS011;4099;52.684;9.918;2022-12-18T08:02:16;23.63;;;12.80;;
8113;SDS011;4099;52.684;9.918;2022-12-18T08:07:18;24.60;;;13.63;;
8113;SDS011;4099;52.684;9.918;2022-12-18T08:12:20;26.53;;;15.23;;
8113;SDS011;4099;52.684;9.918;2022-12-18T08:17:23;22.63;;;13.00;;
8113;SDS011;4099;52.684;9.918;2022-12-18T08:22:25;27.70;;;14.97;;
8113;SDS011;4099;52.684;9.918;2022-12-18T08:27:27;29.57;;;14.93;;
8113;SDS011;4099;52.684;9.918;2022-12-18T08:32:30;33.37;;;15.63;;
8113;SDS011;4099;52.684;9.918;2022-12-18T08:37:32;31.73;;;15.27;;
8113;SDS011;4099;52.684;9.918;2022-12-18T08:42:34;32.43;;;15.73;;
8113;SDS011;4099;52.684;9.918;2022-12-18T08:47:55;30.60;;;16.20;;
8113;SDS011;4099;52.684;9.918;2022-12-18T08:52:57;32.43;;;16.33;;
8113;SDS011;4099;52.684;9.918;2022-12-18T08:57:59;31.57;;;16.73;;
8113;SDS011;4099;52.684;9.918;2022-12-18T09:03:02;30.30;;;17.73;;
8113;SDS011;4099;52.684;9.918;2022-12-18T09:08:04;26.77;;;16.80;;
8113;SDS011;4099;52.684;9.918;2022-12-18T09:13:06;31.73;;;18.50;;
8113;SDS011;4099;52.684;9.918;2022-12-18T09:18:09;28.17;;;16.60;;
8113;SDS011;4099;52.684;9.918;2022-12-18T09:23:11;27.57;;;16.60;;
8113;SDS011;4099;52.684;9.918;2022-12-18T09:28:14;32.03;;;17.00;;
8113;SDS011;4099;52.684;9.918;2022-12-18T09:33:18;30.97;;;17.57;;
8113;SDS011;4099;52.684;9.918;2022-12-18T09:38:20;30.77;;;17.10;;
8113;SDS011;4099;52.684;9.918;2022-12-18T09:43:24;27.40;;;16.93;;
8113;SDS011;4099;52.684;9.918;2022-12-18T09:48:34;26.37;;;15.87;;
8113;SDS011;4099;52.684;9.918;2022-12-18T09:53:37;37.37;;;20.00;;
8113;SDS011;4099;52.684;9.918;2022-12-18T09:58:41;29.70;;;17.63;;
8113;SDS011;4099;52.684;9.918;2022-12-18T10:03:50;46.63;;;27.17;;
8113;SDS011;4099;52.684;9.918;2022-12-18T10:08:54;31.77;;;17.43;;
8113;SDS011;4099;52.684;9.918;2022-12-18T10:14:04;28.13;;;17.37;;
8113;SDS011;4099;52.684;9.918;2022-12-18T10:19:20;26.50;;;15.63;;
8113;SDS011;4099;52.684;9.918;2022-12-18T10:24:33;30.00;;;18.50;;
8113;SDS011;4099;52.684;9.918;2022-12-18T10:29:42;28.70;;;16.77;;
8113;SDS011;4099;52.684;9.918;2022-12-18T10:34:47;30.87;;;18.03;;
8113;SDS011;4099;52.684;9.918;2022-12-18T10:40:04;31.40;;;17.67;;
8113;SDS011;4099;52.684;9.918;2022-12-18T10:45:10;40.77;;;26.87;;
8113;SDS011;4099;52.684;9.918;2022-12-18T10:50:20;25.60;;;15.70;;
8113;SDS011;4099;52.684;9.918;2022-12-18T10:55:30;29.33;;;19.07;;
8113;SDS011;4099;52.684;9.918;2022-12-18T11:00:35;24.67;;;14.80;;
8113;SDS011;4099;52.684;9.918;2022-12-18T11:05:38;29.27;;;18.00;;
8113;SDS011;4099;52.684;9.918;2022-12-18T11:10:40;23.20;;;14.40;;
8113;SDS011;4099;52.684;9.918;2022-12-18T11:15:48;30.37;;;17.80;;
8113;SDS011;4099;52.684;9.918;2022-12-18T11:20:53;24.83;;;15.17;;
8113;SDS011;4099;52.684;9.918;2022-12-18T11:25:58;28.77;;;17.33;;
8113;SDS011;4099;52.684;9.918;2022-12-18T11:31:21;25.83;;;15.10;;
8113;SDS011;4099;52.684;9.918;2022-12-18T11:36:26;23.90;;;14.67;;
8113;SDS011;4099;52.684;9.918;2022-12-18T11:41:32;26.27;;;16.90;;
8113;SDS011;4099;52.684;9.918;2022-12-18T11:47:00;26.57;;;15.37;;
8113;SDS011;4099;52.684;9.918;2022-12-18T11:52:08;23.80;;;14.47;;
8113;SDS011;4099;52.684;9.918;2022-12-18T11:57:17;27.53;;;15.33;;
8113;SDS011;4099;52.684;9.918;2022-12-18T12:02:35;26.50;;;15.47;;
8113;SDS011;4099;52.684;9.918;2022-12-18T12:07:52;24.13;;;14.10;;
8113;SDS011;4099;52.684;9.918;2022-12-18T12:13:05;22.40;;;13.43;;
8113;SDS011;4099;52.684;9.918;2022-12-18T12:18:21;27.07;;;14.53;;
8113;SDS011;4099;52.684;9.918;2022-12-18T12:23:34;19.17;;;13.00;;
8113;SDS011;4099;52.684;9.918;2022-12-18T12:28:52;21.43;;;13.93;;
8113;SDS011;4099;52.684;9.918;2022-12-18T12:34:05;19.43;;;12.40;;
8113;SDS011;4099;52.684;9.918;2022-12-18T12:39:17;21.13;;;14.10;;
8113;SDS011;4099;52.684;9.918;2022-12-18T12:44:23;20.33;;;12.50;;
8113;SDS011;4099;52.684;9.918;2022-12-18T12:49:29;24.13;;;14.30;;
8113;SDS011;4099;52.684;9.918;2022-12-18T12:54:35;26.50;;;15.03;;
8113;SDS011;4099;52.684;9.918;2022-12-18T12:59:40;27.57;;;15.33;;
8113;SDS011;4099;52.684;9.918;2022-12-18T13:04:49;24.67;;;15.30;;
8113;SDS011;4099;52.684;9.918;2022-12-18T13:15:31;24.33;;;13.80;;
8113;SDS011;4099;52.684;9.918;2022-12-18T13:20:38;24.43;;;13.90;;
8113;SDS011;4099;52.684;9.918;2022-12-18T13:25:43;43.77;;;21.97;;
8113;SDS011;4099;52.684;9.918;2022-12-18T13:30:46;30.10;;;16.90;;
8113;SDS011;4099;52.684;9.918;2022-12-18T13:35:58;23.77;;;16.57;;
8113;SDS011;4099;52.684;9.918;2022-12-18T13:41:20;27.73;;;16.37;;
8113;SDS011;4099;52.684;9.918;2022-12-18T13:46:24;29.23;;;16.43;;
8113;SDS011;4099;52.684;9.918;2022-12-18T13:51:29;28.07;;;16.30;;
8113;SDS011;4099;52.684;9.918;2022-12-18T13:56:42;26.47;;;15.73;;
8113;SDS011;4099;52.684;9.918;2022-12-18T14:01:46;24.67;;;15.63;;
8113;SDS011;4099;52.684;9.918;2022-12-18T14:06:50;28.47;;;16.93;;
8113;SDS011;4099;52.684;9.918;2022-12-18T14:11:55;29.23;;;16.37;;
8113;SDS011;4099;52.684;9.918;2022-12-18T14:17:12;28.17;;;16.10;;
8113;SDS011;4099;52.684;9.918;2022-12-18T14:22:16;26.43;;;15.07;;
8113;SDS011;4099;52.684;9.918;2022-12-18T14:27:22;35.17;;;19.80;;
8113;SDS011;4099;52.684;9.918;2022-12-18T14:32:26;29.37;;;17.67;;
8113;SDS011;4099;52.684;9.918;2022-12-18T14:37:28;28.87;;;15.60;;
8113;SDS011;4099;52.684;9.918;2022-12-18T14:42:32;31.60;;;16.00;;
8113;SDS011;4099;52.684;9.918;2022-12-18T14:47:34;31.37;;;17.37;;
8113;SDS011;4099;52.684;9.918;2022-12-18T14:52:36;33.27;;;17.33;;
8113;SDS011;4099;52.684;9.918;2022-12-18T14:57:40;38.67;;;19.47;;
8113;SDS011;4099;52.684;9.918;2022-12-18T15:02:43;29.17;;;16.37;;
8113;SDS011;4099;52.684;9.918;2022-12-18T15:07:47;35.00;;;18.60;;
8113;SDS011;4099;52.684;9.918;2022-12-18T15:13:05;37.07;;;19.13;;
8113;SDS011;4099;52.684;9.918;2022-12-18T15:18:11;32.40;;;18.40;;
8113;SDS011;4099;52.684;9.918;2022-12-18T15:23:17;36.63;;;19.47;;
8113;SDS011;4099;52.684;9.918;2022-12-18T15:28:23;42.23;;;23.93;;
8113;SDS011;4099;52.684;9.918;2022-12-18T15:33:29;35.77;;;20.23;;
8113;SDS011;4099;52.684;9.918;2022-12-18T15:38:33;37.50;;;20.00;;
8113;SDS011;4099;52.684;9.918;2022-12-18T15:43:37;33.77;;;18.33;;
8113;SDS011;4099;52.684;9.918;2022-12-18T15:48:39;43.83;;;23.13;;
8113;SDS011;4099;52.684;9.918;2022-12-18T15:53:42;40.37;;;19.67;;
8113;SDS011;4099;52.684;9.918;2022-12-18T15:58:46;37.00;;;18.47;;
8113;SDS011;4099;52.684;9.918;2022-12-18T16:03:48;30.97;;;17.83;;
8113;SDS011;4099;52.684;9.918;2022-12-18T16:08:50;36.53;;;18.80;;
8113;SDS011;4099;52.684;9.918;2022-12-18T16:13:53;36.00;;;18.60;;
8113;SDS011;4099;52.684;9.918;2022-12-18T16:18:56;33.50;;;17.43;;
8113;SDS011;4099;52.684;9.918;2022-12-18T16:23:58;29.33;;;18.23;;
8113;SDS011;4099;52.684;9.918;2022-12-18T16:29:01;29.07;;;17.13;;
8113;SDS011;4099;52.684;9.918;2022-12-18T16:34:12;30.63;;;17.50;;
8113;SDS011;4099;52.684;9.918;2022-12-18T16:39:15;31.53;;;18.10;;
8113;SDS011;4099;52.684;9.918;2022-12-18T16:44:19;29.03;;;17.57;;
8113;SDS011;4099;52.684;9.918;2022-12-18T16:49:21;30.97;;;17.20;;
8113;SDS011;4099;52.684;9.918;2022-12-18T16:54:23;32.13;;;16.40;;
8113;SDS011;4099;52.684;9.918;2022-12-18T16:59:26;28.07;;;16.73;;
8113;SDS011;4099;52.684;9.918;2022-12-18T17:04:28;27.20;;;15.93;;
8113;SDS011;4099;52.684;9.918;2022-12-18T17:09:30;29.10;;;19.20;;
8113;SDS011;4099;52.684;9.918;2022-12-18T17:14:34;26.87;;;15.73;;
8113;SDS011;4099;52.684;9.918;2022-12-18T17:19:36;26.87;;;15.97;;
8113;SDS011;4099;52.684;9.918;2022-12-18T17:24:38;26.23;;;14.83;;
8113;SDS011;4099;52.684;9.918;2022-12-18T17:29:42;27.07;;;13.90;;
8113;SDS011;4099;52.684;9.918;2022-12-18T17:34:44;23.20;;;13.77;;
8113;SDS011;4099;52.684;9.918;2022-12-18T17:39:45;23.43;;;14.00;;
8113;SDS011;4099;52.684;9.918;2022-12-18T17:44:49;22.80;;;14.10;;
8113;SDS011;4099;52.684;9.918;2022-12-18T17:49:51;24.97;;;14.50;;
8113;SDS011;4099;52.684;9.918;2022-12-18T17:54:53;23.90;;;14.43;;
8113;SDS011;4099;52.684;9.918;2022-12-18T17:59:56;26.27;;;15.00;;
8113;SDS011;4099;52.684;9.918;2022-12-18T18:04:58;28.40;;;15.23;;
8113;SDS011;4099;52.684;9.918;2022-12-18T18:10:00;21.97;;;12.90;;
8113;SDS011;4099;52.684;9.918;2022-12-18T18:15:03;22.63;;;13.80;;
8113;SDS011;4099;52.684;9.918;2022-12-18T18:20:06;20.43;;;12.80;;
8113;SDS011;4099;52.684;9.918;2022-12-18T18:25:08;23.03;;;13.87;;
8113;SDS011;4099;52.684;9.918;2022-12-18T18:30:12;27.20;;;15.83;;
8113;SDS011;4099;52.684;9.918;2022-12-18T18:35:14;20.60;;;13.47;;
8113;SDS011;4099;52.684;9.918;2022-12-18T18:40:16;23.33;;;13.80;;
8113;SDS011;4099;52.684;9.918;2022-12-18T18:45:21;21.47;;;13.17;;
8113;SDS011;4099;52.684;9.918;2022-12-18T18:50:23;20.60;;;12.67;;
8113;SDS011;4099;52.684;9.918;2022-12-18T18:55:25;20.87;;;12.37;;
8113;SDS011;4099;52.684;9.918;2022-12-18T19:00:28;17.47;;;11.47;;
8113;SDS011;4099;52.684;9.918;2022-12-18T19:05:30;19.67;;;11.50;;
8113;SDS011;4099;52.684;9.918;2022-12-18T19:10:32;21.40;;;11.63;;
8113;SDS011;4099;52.684;9.918;2022-12-18T19:15:36;17.63;;;10.80;;
8113;SDS011;4099;52.684;9.918;2022-12-18T19:20:38;20.50;;;11.50;;
8113;SDS011;4099;52.684;9.918;2022-12-18T19:25:40;17.27;;;11.33;;
8113;SDS011;4099;52.684;9.918;2022-12-18T19:30:43;20.73;;;11.13;;
8113;SDS011;4099;52.684;9.918;2022-12-18T19:35:45;18.67;;;11.80;;
8113;SDS011;4099;52.684;9.918;2022-12-18T19:40:47;17.37;;;11.03;;
8113;SDS011;4099;52.684;9.918;2022-12-18T19:45:54;19.43;;;10.60;;
8113;SDS011;4099;52.684;9.918;2022-12-18T19:50:56;17.27;;;10.87;;
8113;SDS011;4099;52.684;9.918;2022-12-18T19:55:58;18.17;;;11.90;;
8113;SDS011;4099;52.684;9.918;2022-12-18T20:01:06;20.03;;;13.10;;
8113;SDS011;4099;52.684;9.918;2022-12-18T20:06:09;22.97;;;12.80;;
8113;SDS011;4099;52.684;9.918;2022-12-18T20:11:12;20.30;;;12.53;;
8113;SDS011;4099;52.684;9.918;2022-12-18T20:16:16;21.30;;;14.10;;
8113;SDS011;4099;52.684;9.918;2022-12-18T20:21:18;17.83;;;11.63;;
8113;SDS011;4099;52.684;9.918;2022-12-18T20:26:20;19.37;;;11.90;;
8113;SDS011;4099;52.684;9.918;2022-12-18T20:31:23;19.17;;;12.43;;
8113;SDS011;4099;52.684;9.918;2022-12-18T20:36:25;20.20;;;12.83;;
8113;SDS011;4099;52.684;9.918;2022-12-18T20:41:27;18.17;;;11.90;;
8113;SDS011;4099;52.684;9.918;2022-12-18T20:46:30;24.90;;;14.97;;
8113;SDS011;4099;52.684;9.918;2022-12-18T20:51:32;19.10;;;12.93;;
8113;SDS011;4099;52.684;9.918;2022-12-18T20:56:34;20.57;;;13.20;;
8113;SDS011;4099;52.684;9.918;2022-12-18T21:01:37;18.63;;;11.40;;
8113;SDS011;4099;52.684;9.918;2022-12-18T21:06:40;18.50;;;11.80;;
8113;SDS011;4099;52.684;9.918;2022-12-18T21:11:42;19.53;;;12.80;;
8113;SDS011;4099;52.684;9.918;2022-12-18T21:17:03;19.40;;;11.43;;
8113;SDS011;4099;52.684;9.918;2022-12-18T21:22:05;17.00;;;11.50;;
8113;SDS011;4099;52.684;9.918;2022-12-18T21:27:07;15.87;;;10.67;;
8113;SDS011;4099;52.684;9.918;2022-12-18T21:32:10;17.60;;;11.83;;
8113;SDS011;4099;52.684;9.918;2022-12-18T21:37:13;17.73;;;12.13;;
8113;SDS011;4099;52.684;9.918;2022-12-18T21:42:15;17.43;;;11.67;;
8113;SDS011;4099;52.684;9.918;2022-12-18T21:47:35;17.47;;;11.87;;
8113;SDS011;4099;52.684;9.918;2022-12-18T21:52:37;20.87;;;13.80;;
8113;SDS011;4099;52.684;9.918;2022-12-18T21:57:39;28.23;;;16.87;;
8113;SDS011;4099;52.684;9.918;2022-12-18T22:02:42;22.43;;;14.87;;
8113;SDS011;4099;52.684;9.918;2022-12-18T22:07:44;19.97;;;12.87;;
8113;SDS011;4099;52.684;9.918;2022-12-18T22:12:46;20.50;;;12.80;;
8113;SDS011;4099;52.684;9.918;2022-12-18T22:17:49;16.73;;;11.53;;
8113;SDS011;4099;52.684;9.918;2022-12-18T22:22:51;17.83;;;11.07;;
8113;SDS011;4099;52.684;9.918;2022-12-18T22:27:53;17.07;;;11.57;;
8113;SDS011;4099;52.684;9.918;2022-12-18T22:33:14;21.07;;;11.43;;
8113;SDS011;4099;52.684;9.918;2022-12-18T22:38:16;19.77;;;11.20;;
8113;SDS011;4099;52.684;9.918;2022-12-18T22:43:18;18.40;;;11.53;;
8113;SDS011;4099;52.684;9.918;2022-12-18T22:48:21;20.30;;;11.40;;
8113;SDS011;4099;52.684;9.918;2022-12-18T22:53:23;19.07;;;11.20;;
8113;SDS011;4099;52.684;9.918;2022-12-18T22:58:25;24.23;;;13.27;;
8113;SDS011;4099;52.684;9.918;2022-12-18T23:03:28;19.10;;;11.47;;
8113;SDS011;4099;52.684;9.918;2022-12-18T23:08:32;23.63;;;12.97;;
8113;SDS011;4099;52.684;9.918;2022-12-18T23:13:34;17.40;;;11.53;;
8113;SDS011;4099;52.684;9.918;2022-12-18T23:18:37;19.77;;;11.40;;
8113;SDS011;4099;52.684;9.918;2022-12-18T23:23:40;17.47;;;11.73;;
8113;SDS011;4099;52.684;9.918;2022-12-18T23:28:42;18.37;;;11.10;;
8113;SDS011;4099;52.684;9.918;2022-12-18T23:33:46;20.00;;;11.77;;
8113;SDS011;4099;52.684;9.918;2022-12-18T23:38:48;15.13;;;10.37;;
8113;SDS011;4099;52.684;9.918;2022-12-18T23:43:52;17.10;;;10.47;;
8113;SDS011;4099;52.684;9.918;2022-12-18T23:48:56;17.30;;;11.30;;
8113;SDS011;4099;52.684;9.918;2022-12-18T23:53:59;18.80;;;11.60;;
8113;SDS011;4099;52.684;9.918;2022-12-18T23:59:01;17.27;;;11.77;;
